createdAt,value
2018-07-25T00:00:51.924Z,42.19
2018-07-25T00:01:51.916Z,42.38
2018-07-25T00:03:51.988Z,42.48
2018-07-25T00:04:52.325Z,42.77
2018-07-25T00:05:52.118Z,42.58
2018-07-25T00:06:52.145Z,42.68
2018-07-25T00:07:52.184Z,42.87
2018-07-25T00:08:52.174Z,42.87
2018-07-25T00:09:52.203Z,42.97
2018-07-25T00:10:52.244Z,42.87
2018-07-25T00:11:52.575Z,42.87
2018-07-25T00:12:52.367Z,43.46
2018-07-25T00:13:52.406Z,43.26
2018-07-25T00:14:52.389Z,43.07
2018-07-25T00:15:52.481Z,43.75
2018-07-25T00:16:52.527Z,44.24
2018-07-25T00:17:52.553Z,43.55
2018-07-25T00:18:52.829Z,43.53
2018-07-25T00:19:52.616Z,44.12
2018-07-25T00:20:52.661Z,44.21
2018-07-25T00:21:52.688Z,44.02
2018-07-25T00:23:52.765Z,44.80
2018-07-25T00:24:52.754Z,44.70
2018-07-25T00:25:53.083Z,44.58
2018-07-25T00:26:52.875Z,44.58
2018-07-25T00:27:52.904Z,44.97
2018-07-25T00:28:52.895Z,45.07
2018-07-25T00:29:52.981Z,45.07
2018-07-25T00:30:52.967Z,45.65
2018-07-25T00:31:52.999Z,45.36
2018-07-25T00:33:53.372Z,45.46
2018-07-25T00:34:53.159Z,45.26
2018-07-25T00:35:53.143Z,45.56
2018-07-25T00:36:53.229Z,45.56
2018-07-25T00:37:53.280Z,45.26
2018-07-25T00:38:53.257Z,45.36
2018-07-25T00:39:53.287Z,45.36
2018-07-25T00:41:53.665Z,45.46
2018-07-25T00:43:53.487Z,45.36
2018-07-25T00:44:53.473Z,45.26
2018-07-25T00:45:53.611Z,45.56
2018-07-25T00:46:53.550Z,45.65
2018-07-25T00:48:53.666Z,46.22
2018-07-25T00:49:53.949Z,45.92
2018-07-25T00:50:53.737Z,46.12
2018-07-25T00:51:53.718Z,46.41
2018-07-25T00:52:53.754Z,46.31
2018-07-25T00:53:53.845Z,46.61
2018-07-25T00:54:53.839Z,46.70
2018-07-25T00:55:53.918Z,46.70
2018-07-25T00:56:54.198Z,46.78
2018-07-25T00:57:53.991Z,46.88
2018-07-25T00:58:53.971Z,47.36
2018-07-25T00:59:54.005Z,46.97
2018-07-25T01:00:54.091Z,47.07
2018-07-25T01:01:54.078Z,47.56
2018-07-25T01:02:54.166Z,47.17
2018-07-25T01:03:54.453Z,47.17
2018-07-25T01:04:54.192Z,47.07
2018-07-25T01:05:54.222Z,46.97
2018-07-25T01:06:54.305Z,47.17
2018-07-25T01:07:54.301Z,47.46
2018-07-25T01:08:54.337Z,47.36
2018-07-25T01:09:54.414Z,47.36
2018-07-25T01:10:54.703Z,47.66
2018-07-25T01:11:54.488Z,47.46
2018-07-25T01:12:54.470Z,47.07
2018-07-25T01:13:54.565Z,47.95
2018-07-25T01:14:54.550Z,47.46
2018-07-25T01:15:54.586Z,47.46
2018-07-25T01:16:54.667Z,47.27
2018-07-25T01:17:54.958Z,47.75
2018-07-25T01:19:54.719Z,47.75
2018-07-25T01:20:54.766Z,47.36
2018-07-25T01:22:54.828Z,48.05
2018-07-25T01:23:54.913Z,47.95
2018-07-25T01:24:55.254Z,48.54
2018-07-25T01:25:54.985Z,48.14
2018-07-25T01:26:54.970Z,48.22
2018-07-25T01:27:55.061Z,48.51
2018-07-25T01:28:55.046Z,48.51
2018-07-25T01:29:55.129Z,48.41
2018-07-25T01:30:55.166Z,48.41
2018-07-25T01:31:55.457Z,48.61
2018-07-25T01:32:55.187Z,48.61
2018-07-25T01:33:55.284Z,48.44
2018-07-25T01:34:55.309Z,48.54
2018-07-25T01:35:55.290Z,48.61
2018-07-25T01:36:55.381Z,48.54
2018-07-25T01:37:55.416Z,48.93
2018-07-25T01:38:55.706Z,49.10
2018-07-25T01:39:55.441Z,48.80
2018-07-25T01:40:55.471Z,48.71
2018-07-25T01:41:55.570Z,48.83
2018-07-25T01:42:55.586Z,48.90
2018-07-25T01:43:55.582Z,49.10
2018-07-25T01:44:55.606Z,49.19
2018-07-25T01:46:56.029Z,49.19
2018-07-25T01:47:55.716Z,48.80
2018-07-25T01:48:55.754Z,48.80
2018-07-25T01:49:55.837Z,49.19
2018-07-25T01:50:55.819Z,49.29
2018-07-25T01:51:55.907Z,49.39
2018-07-25T01:52:55.895Z,49.39
2018-07-25T01:53:56.226Z,49.58
2018-07-25T01:54:55.967Z,49.68
2018-07-25T01:55:56.003Z,49.19
2018-07-25T01:56:56.082Z,49.29
2018-07-25T01:57:56.119Z,49.19
2018-07-25T01:58:56.102Z,49.29
2018-07-25T01:59:56.145Z,48.80
2018-07-25T02:00:56.477Z,49.00
2018-07-25T02:02:56.296Z,49.29
2018-07-25T02:03:56.340Z,49.10
2018-07-25T02:04:56.317Z,49.10
2018-07-25T02:07:56.470Z,49.19
2018-07-25T02:08:56.760Z,49.29
2018-07-25T02:09:56.544Z,49.29
2018-07-25T02:10:56.525Z,49.39
2018-07-25T02:11:56.616Z,49.49
2018-07-25T02:12:56.608Z,49.49
2018-07-25T02:13:56.688Z,49.58
2018-07-25T02:14:56.718Z,50.07
2018-07-25T02:15:57.010Z,49.78
2018-07-25T02:16:56.786Z,49.76
2018-07-25T02:17:56.821Z,49.49
2018-07-25T02:18:56.806Z,50.04
2018-07-25T02:19:56.848Z,50.07
2018-07-25T02:20:56.930Z,50.34
2018-07-25T02:21:56.961Z,50.34
2018-07-25T02:22:57.263Z,50.04
2018-07-25T02:23:56.983Z,50.34
2018-07-25T02:24:57.015Z,50.14
2018-07-25T02:25:57.051Z,50.14
2018-07-25T02:26:57.135Z,49.76
2018-07-25T02:27:57.172Z,49.76
2018-07-25T02:28:57.210Z,50.04
2018-07-25T02:29:57.493Z,50.24
2018-07-25T02:30:57.228Z,50.53
2018-07-25T02:31:57.312Z,50.63
2018-07-25T02:32:57.297Z,50.43
2018-07-25T02:34:57.372Z,50.63
2018-07-25T02:35:57.400Z,50.43
2018-07-25T02:36:57.743Z,50.82
2018-07-25T02:37:57.523Z,51.02
2018-07-25T02:39:57.601Z,50.73
2018-07-25T02:40:57.576Z,50.82
2018-07-25T02:41:57.612Z,50.82
2018-07-25T02:42:57.654Z,50.80
2018-07-25T02:43:57.995Z,50.82
2018-07-25T02:45:57.755Z,50.82
2018-07-25T02:46:57.846Z,50.73
2018-07-25T02:47:57.827Z,50.73
2018-07-25T02:48:57.916Z,50.34
2018-07-25T02:49:57.941Z,50.73
2018-07-25T02:50:58.231Z,50.82
2018-07-25T02:51:57.961Z,50.43
2018-07-25T02:52:57.997Z,50.63
2018-07-25T02:54:58.118Z,50.63
2018-07-25T02:55:58.154Z,50.63
2018-07-25T02:56:58.214Z,50.92
2018-07-25T02:57:58.477Z,50.82
2018-07-25T02:58:58.254Z,50.63
2018-07-25T02:59:58.239Z,50.82
2018-07-25T03:00:58.279Z,50.63
2018-07-25T03:01:58.365Z,51.58
2018-07-25T03:02:58.401Z,51.21
2018-07-25T03:03:58.379Z,51.09
2018-07-25T03:04:58.726Z,50.80
2018-07-25T03:05:58.505Z,51.58
2018-07-25T03:06:58.534Z,51.58
2018-07-25T03:07:58.523Z,51.09
2018-07-25T03:08:58.640Z,51.07
2018-07-25T03:09:58.641Z,50.60
2018-07-25T03:10:58.924Z,51.09
2018-07-25T03:11:58.670Z,51.19
2018-07-25T03:12:58.700Z,51.19
2018-07-25T03:13:58.739Z,51.09
2018-07-25T03:14:58.817Z,51.29
2018-07-25T03:15:58.801Z,50.70
2018-07-25T03:16:59.137Z,50.90
2018-07-25T03:17:58.925Z,51.48
2018-07-25T03:18:59.007Z,50.90
2018-07-25T03:19:58.992Z,51.58
2018-07-25T03:20:59.021Z,51.67
2018-07-25T03:21:59.057Z,51.55
2018-07-25T03:22:59.341Z,51.36
2018-07-25T03:24:57.807Z,51.94
2018-07-25T03:25:57.598Z,51.55
2018-07-25T03:26:57.634Z,51.55
2018-07-25T03:28:57.698Z,51.75
2018-07-25T03:29:57.736Z,51.45
2018-07-25T03:30:58.033Z,51.45
2018-07-25T03:31:57.805Z,51.84
2018-07-25T03:32:57.791Z,51.75
2018-07-25T03:33:57.822Z,51.65
2018-07-25T03:34:57.861Z,51.65
2018-07-25T03:35:57.949Z,51.84
2018-07-25T03:36:58.227Z,51.84
2018-07-25T03:37:58.009Z,52.14
2018-07-25T03:38:58.044Z,51.92
2018-07-25T03:39:58.026Z,52.50
2018-07-25T03:40:58.121Z,52.62
2018-07-25T03:41:58.151Z,52.23
2018-07-25T03:42:58.186Z,52.33
2018-07-25T03:43:58.472Z,52.33
2018-07-25T03:44:58.202Z,51.75
2018-07-25T03:45:58.241Z,51.75
2018-07-25T03:46:58.326Z,52.33
2018-07-25T03:47:58.360Z,52.23
2018-07-25T03:48:58.387Z,51.75
2018-07-25T03:49:58.379Z,52.62
2018-07-25T03:50:58.709Z,52.53
2018-07-25T03:51:58.509Z,52.53
2018-07-25T03:52:58.478Z,52.62
2018-07-25T03:53:58.567Z,52.43
2018-07-25T03:54:58.600Z,52.62
2018-07-25T03:55:58.588Z,52.59
2018-07-25T03:58:59.036Z,52.14
2018-07-25T03:59:58.813Z,52.62
2018-07-25T04:00:58.814Z,52.53
2018-07-25T04:01:58.912Z,52.53
2018-07-25T04:02:58.833Z,52.53
2018-07-25T04:03:58.920Z,52.53
2018-07-25T04:04:58.907Z,52.53
2018-07-25T04:05:59.232Z,52.62
2018-07-25T04:06:59.018Z,51.65
2018-07-25T04:07:59.000Z,52.33
2018-07-25T04:08:59.031Z,52.72
2018-07-25T04:09:59.077Z,52.43
2018-07-25T04:10:59.151Z,52.04
2018-07-25T04:11:59.194Z,52.23
2018-07-25T04:12:59.472Z,52.53
2018-07-25T04:13:59.208Z,52.14
2018-07-25T04:14:59.286Z,52.53
2018-07-25T04:16:59.359Z,52.62
2018-07-25T04:17:59.345Z,52.62
2018-07-25T04:18:59.427Z,52.14
2018-07-25T04:19:59.711Z,51.84
2018-07-25T04:20:59.496Z,51.84
2018-07-25T04:21:59.539Z,51.75
2018-07-25T04:22:59.568Z,51.65
2018-07-25T04:23:59.551Z,52.04
2018-07-25T04:24:59.586Z,51.58
2018-07-25T04:25:59.678Z,51.48
2018-07-25T04:26:59.960Z,51.39
2018-07-25T04:27:59.692Z,51.67
2018-07-25T04:28:59.719Z,51.58
2018-07-25T04:29:59.760Z,51.29
2018-07-25T04:30:59.840Z,51.02
2018-07-25T04:31:59.880Z,51.21
2018-07-25T04:32:59.862Z,50.82
2018-07-25T04:34:00.197Z,51.31
2018-07-25T04:34:59.932Z,51.12
2018-07-25T04:36:00.019Z,50.82
2018-07-25T04:37:00.002Z,50.73
2018-07-25T04:38:00.087Z,50.53
2018-07-25T04:39:00.117Z,50.82
2018-07-25T04:40:00.102Z,50.73
2018-07-25T04:41:00.440Z,50.34
2018-07-25T04:42:00.180Z,50.63
2018-07-25T04:43:00.254Z,50.16
2018-07-25T04:44:00.301Z,50.36
2018-07-25T04:45:00.335Z,50.04
2018-07-25T04:46:00.390Z,50.07
2018-07-25T04:47:00.394Z,50.16
2018-07-25T04:48:00.728Z,50.07
2018-07-25T04:49:00.435Z,50.16
2018-07-25T04:50:00.448Z,49.97
2018-07-25T04:51:00.490Z,49.58
2018-07-25T04:52:00.569Z,49.78
2018-07-25T04:53:00.555Z,49.68
2018-07-25T04:54:00.595Z,49.78
2018-07-25T04:55:00.928Z,50.07
2018-07-25T04:56:00.673Z,50.16
2018-07-25T04:57:00.750Z,49.32
2018-07-25T04:58:00.736Z,49.68
2018-07-25T04:59:00.817Z,49.39
2018-07-25T05:00:00.849Z,49.32
2018-07-25T05:01:00.837Z,49.32
2018-07-25T05:02:01.170Z,49.61
2018-07-25T05:03:00.958Z,49.02
2018-07-25T05:04:00.991Z,49.32
2018-07-25T05:05:00.978Z,49.32
2018-07-25T05:06:01.013Z,49.32
2018-07-25T05:07:01.081Z,49.12
2018-07-25T05:08:01.084Z,48.93
2018-07-25T05:09:01.472Z,48.83
2018-07-25T05:10:01.148Z,48.93
2018-07-25T05:11:01.242Z,49.12
2018-07-25T05:12:01.224Z,49.12
2018-07-25T05:13:01.258Z,49.12
2018-07-25T05:14:01.344Z,49.02
2018-07-25T05:15:01.329Z,48.93
2018-07-25T05:16:01.677Z,49.22
2018-07-25T05:17:01.443Z,49.12
2018-07-25T05:18:01.539Z,49.12
2018-07-25T05:19:01.521Z,48.83
2018-07-25T05:20:01.550Z,48.83
2018-07-25T05:21:01.583Z,48.83
2018-07-25T05:22:01.577Z,49.02
2018-07-25T05:23:01.663Z,48.75
2018-07-25T05:24:01.637Z,48.63
2018-07-25T05:25:01.724Z,48.44
2018-07-25T05:26:01.761Z,48.46
2018-07-25T05:27:01.755Z,48.46
2018-07-25T05:28:01.778Z,48.46
2018-07-25T05:29:02.117Z,48.66
2018-07-25T05:30:01.931Z,48.27
2018-07-25T05:31:01.936Z,48.17
2018-07-25T05:32:01.924Z,48.27
2018-07-25T05:33:01.959Z,48.56
2018-07-25T05:34:01.999Z,48.17
2018-07-25T05:35:02.327Z,48.17
2018-07-25T05:36:02.125Z,48.36
2018-07-25T05:37:02.102Z,48.07
2018-07-25T05:38:02.144Z,48.27
2018-07-25T05:39:02.175Z,48.27
2018-07-25T05:40:02.261Z,48.36
2018-07-25T05:41:02.538Z,48.36
2018-07-25T05:42:02.329Z,48.36
2018-07-25T05:43:02.363Z,48.56
2018-07-25T05:44:02.355Z,48.46
2018-07-25T05:45:02.380Z,48.46
2018-07-25T05:46:02.482Z,47.88
2018-07-25T05:47:02.501Z,48.00
2018-07-25T05:48:02.841Z,47.78
2018-07-25T05:49:02.520Z,48.10
2018-07-25T05:50:02.565Z,48.10
2018-07-25T05:51:02.647Z,48.07
2018-07-25T05:52:02.636Z,47.97
2018-07-25T05:53:02.813Z,48.07
2018-07-25T05:54:02.757Z,47.88
2018-07-25T05:55:03.041Z,47.61
2018-07-25T05:56:02.772Z,47.71
2018-07-25T05:57:02.813Z,47.71
2018-07-25T05:58:02.841Z,47.90
2018-07-25T05:59:02.933Z,47.71
2018-07-25T06:00:02.965Z,47.90
2018-07-25T06:01:03.005Z,47.80
2018-07-25T06:02:03.332Z,47.71
2018-07-25T06:03:03.260Z,47.71
2018-07-25T06:04:03.280Z,47.61
2018-07-25T06:05:03.089Z,47.61
2018-07-25T06:06:03.181Z,47.80
2018-07-25T06:07:03.213Z,47.80
2018-07-25T06:08:03.254Z,47.71
2018-07-25T06:09:03.537Z,47.71
2018-07-25T06:10:03.328Z,47.61
2018-07-25T06:11:03.300Z,47.41
2018-07-25T06:12:03.405Z,47.51
2018-07-25T06:13:03.375Z,47.12
2018-07-25T06:14:03.411Z,47.31
2018-07-25T06:15:03.504Z,47.22
2018-07-25T06:16:03.780Z,47.22
2018-07-25T06:17:03.524Z,47.12
2018-07-25T06:18:03.606Z,47.12
2018-07-25T06:19:03.584Z,46.92
2018-07-25T06:20:03.628Z,47.31
2018-07-25T06:21:03.711Z,46.92
2018-07-25T06:22:03.748Z,47.02
2018-07-25T06:23:04.028Z,47.02
2018-07-25T06:24:03.765Z,46.73
2018-07-25T06:25:03.852Z,47.02
2018-07-25T06:26:03.972Z,47.31
2018-07-25T06:27:03.920Z,47.31
2018-07-25T06:28:03.910Z,46.92
2018-07-25T06:29:03.994Z,46.92
2018-07-25T06:30:04.336Z,47.02
2018-07-25T06:31:04.073Z,46.92
2018-07-25T06:32:04.051Z,46.92
2018-07-25T06:33:04.091Z,47.12
2018-07-25T06:34:04.167Z,46.92
2018-07-25T06:35:04.218Z,46.92
2018-07-25T06:36:04.189Z,46.44
2018-07-25T06:37:04.529Z,47.02
2018-07-25T06:38:04.292Z,47.12
2018-07-25T06:39:04.352Z,47.12
2018-07-25T06:40:04.382Z,47.12
2018-07-25T06:41:04.422Z,47.14
2018-07-25T06:42:04.405Z,46.92
2018-07-25T06:43:04.492Z,47.02
2018-07-25T06:44:04.525Z,47.14
2018-07-25T06:45:04.564Z,47.05
2018-07-25T06:46:04.544Z,46.92
2018-07-25T06:47:04.632Z,47.05
2018-07-25T06:49:04.655Z,47.05
2018-07-25T06:50:05.044Z,46.63
2018-07-25T06:51:04.724Z,47.05
2018-07-25T06:52:04.762Z,46.85
2018-07-25T06:53:04.801Z,46.75
2018-07-25T06:54:04.844Z,46.95
2018-07-25T06:55:04.918Z,46.46
2018-07-25T06:56:05.253Z,46.95
2018-07-25T06:57:04.937Z,46.75
2018-07-25T06:58:05.027Z,46.66
2018-07-25T06:59:05.065Z,46.75
2018-07-25T07:00:05.045Z,46.75
2018-07-25T07:01:05.133Z,46.56
2018-07-25T07:02:05.421Z,46.66
2018-07-25T07:03:05.160Z,46.66
2018-07-25T07:04:05.238Z,46.75
2018-07-25T07:05:05.278Z,46.36
2018-07-25T07:06:05.313Z,46.66
2018-07-25T07:07:05.295Z,46.75
2018-07-25T07:08:05.390Z,46.75
2018-07-25T07:09:05.371Z,46.75
2018-07-25T07:10:05.466Z,46.75
2018-07-25T07:11:05.488Z,46.75
2018-07-25T07:12:05.512Z,46.36
2018-07-25T07:13:05.560Z,46.26
2018-07-25T07:14:05.998Z,46.46
2018-07-25T07:15:05.683Z,45.97
2018-07-25T07:16:05.677Z,46.36
2018-07-25T07:17:05.653Z,46.26
2018-07-25T07:18:05.760Z,46.17
2018-07-25T07:19:05.780Z,46.46
2018-07-25T07:20:05.769Z,46.46
2018-07-25T07:21:06.121Z,46.07
2018-07-25T07:22:05.844Z,46.17
2018-07-25T07:23:05.925Z,46.39
2018-07-25T07:24:05.941Z,46.26
2018-07-25T07:25:05.996Z,46.26
2018-07-25T07:26:06.038Z,46.36
2018-07-25T07:28:06.116Z,46.09
2018-07-25T07:29:06.385Z,45.87
2018-07-25T07:30:06.125Z,46.09
2018-07-25T07:31:06.212Z,46.19
2018-07-25T07:32:06.253Z,46.07
2018-07-25T07:33:06.234Z,45.97
2018-07-25T07:34:06.283Z,46.00
2018-07-25T07:35:06.379Z,46.00
2018-07-25T07:36:06.699Z,46.19
2018-07-25T07:37:06.385Z,46.00
2018-07-25T07:38:06.411Z,46.39
2018-07-25T07:39:08.651Z,46.39
2018-07-25T07:40:06.478Z,45.51
2018-07-25T07:41:06.575Z,45.70
2018-07-25T07:42:06.620Z,46.17
2018-07-25T07:43:06.889Z,46.19
2018-07-25T07:44:06.693Z,46.09
2018-07-25T07:45:06.660Z,45.61
2018-07-25T07:46:06.749Z,45.90
2018-07-25T07:47:06.790Z,45.90
2018-07-25T07:48:06.879Z,45.31
2018-07-25T07:49:06.857Z,45.41
2018-07-25T07:50:06.847Z,45.70
2018-07-25T07:51:06.930Z,45.70
2018-07-25T07:52:06.970Z,45.70
2018-07-25T07:53:06.950Z,45.61
2018-07-25T07:54:07.006Z,45.51
2018-07-25T07:55:07.072Z,45.41
2018-07-25T07:56:07.361Z,45.90
2018-07-25T07:57:07.152Z,45.61
2018-07-25T07:58:07.200Z,45.21
2018-07-25T07:59:07.172Z,45.51
2018-07-25T08:00:07.208Z,45.70
2018-07-25T08:01:07.250Z,45.61
2018-07-25T08:02:07.575Z,45.61
2018-07-25T08:03:07.369Z,45.61
2018-07-25T08:04:07.408Z,45.31
2018-07-25T08:05:07.423Z,45.41
2018-07-25T08:06:07.416Z,45.41
2018-07-25T08:07:07.501Z,45.31
2018-07-25T08:08:07.791Z,45.61
2018-07-25T08:09:07.573Z,45.41
2018-07-25T08:10:07.622Z,45.61
2018-07-25T08:11:07.657Z,45.31
2018-07-25T08:12:07.643Z,45.41
2018-07-25T08:13:07.677Z,45.12
2018-07-25T08:14:08.066Z,45.41
2018-07-25T08:15:07.798Z,45.21
2018-07-25T08:16:07.806Z,45.12
2018-07-25T08:17:08.020Z,45.21
2018-07-25T08:18:07.916Z,45.51
2018-07-25T08:19:07.892Z,45.41
2018-07-25T08:20:07.968Z,45.41
2018-07-25T08:21:08.375Z,45.41
2018-07-25T08:22:08.041Z,45.21
2018-07-25T08:23:11.211Z,45.31
2018-07-25T08:24:08.123Z,45.41
2018-07-25T08:25:08.159Z,45.31
2018-07-25T08:26:08.146Z,45.02
2018-07-25T08:27:08.223Z,45.21
2018-07-25T08:28:08.518Z,45.12
2018-07-25T08:29:08.255Z,45.61
2018-07-25T08:30:08.331Z,45.31
2018-07-25T08:31:08.377Z,45.21
2018-07-25T08:32:08.360Z,45.41
2018-07-25T08:33:08.389Z,45.41
2018-07-25T08:34:08.431Z,45.41
2018-07-25T08:35:08.788Z,45.51
2018-07-25T08:36:08.562Z,45.41
2018-07-25T08:37:08.539Z,45.41
2018-07-25T08:38:08.574Z,45.51
2018-07-25T08:39:08.669Z,45.12
2018-07-25T08:40:08.642Z,45.12
2018-07-25T08:41:08.769Z,45.12
2018-07-25T08:42:09.018Z,45.31
2018-07-25T08:43:08.816Z,45.31
2018-07-25T08:44:08.875Z,45.02
2018-07-25T08:45:08.837Z,45.02
2018-07-25T08:46:08.915Z,44.63
2018-07-25T08:47:08.899Z,45.12
2018-07-25T08:48:08.998Z,44.82
2018-07-25T08:49:09.321Z,45.21
2018-07-25T08:50:09.010Z,44.73
2018-07-25T08:51:09.100Z,44.82
2018-07-25T08:52:09.131Z,44.92
2018-07-25T08:53:09.123Z,44.92
2018-07-25T08:54:09.160Z,45.21
2018-07-25T08:55:09.238Z,45.02
2018-07-25T08:57:09.617Z,45.02
2018-07-25T08:58:09.349Z,45.12
2018-07-25T08:59:09.392Z,44.92
2018-07-25T09:00:09.426Z,45.14
2018-07-25T09:01:09.412Z,45.21
2018-07-25T09:02:09.439Z,45.02
2018-07-25T09:03:09.545Z,45.02
2018-07-25T09:04:09.863Z,44.82
2018-07-25T09:05:09.613Z,44.73
2018-07-25T09:06:09.601Z,44.55
2018-07-25T09:07:09.677Z,44.82
2018-07-25T09:08:09.662Z,44.74
2018-07-25T09:09:09.706Z,44.24
2018-07-25T09:10:09.799Z,44.53
2018-07-25T09:11:10.117Z,44.73
2018-07-25T09:12:09.812Z,45.02
2018-07-25T09:13:09.924Z,45.14
2018-07-25T09:14:09.938Z,45.04
2018-07-25T09:15:09.982Z,44.94
2018-07-25T09:16:10.010Z,44.24
2018-07-25T09:17:10.042Z,44.73
2018-07-25T09:18:10.412Z,44.65
2018-07-25T09:19:10.124Z,44.92
2018-07-25T09:20:10.151Z,44.74
2018-07-25T09:21:10.190Z,44.84
2018-07-25T09:22:10.217Z,44.74
2018-07-25T09:23:10.259Z,45.04
2018-07-25T09:24:10.288Z,45.02
2018-07-25T09:25:10.623Z,44.65
2018-07-25T09:26:10.378Z,44.84
2018-07-25T09:27:10.404Z,44.74
2018-07-25T09:28:10.444Z,44.74
2018-07-25T09:29:10.476Z,44.84
2018-07-25T09:31:10.552Z,44.94
2018-07-25T09:32:10.886Z,44.65
2018-07-25T09:33:10.623Z,44.45
2018-07-25T09:34:10.739Z,44.84
2018-07-25T09:35:10.652Z,44.84
2018-07-25T09:36:10.674Z,43.96
2018-07-25T09:37:10.767Z,44.55
2018-07-25T09:38:10.816Z,44.26
2018-07-25T09:39:11.144Z,45.04
2018-07-25T09:40:10.821Z,44.65
2018-07-25T09:41:10.856Z,44.84
2018-07-25T09:42:10.899Z,44.65
2018-07-25T09:43:10.986Z,44.35
2018-07-25T09:44:11.019Z,44.26
2018-07-25T09:45:11.056Z,44.26
2018-07-25T09:46:11.351Z,44.26
2018-07-25T09:47:11.139Z,44.26
2018-07-25T09:48:11.166Z,44.84
2018-07-25T09:49:11.154Z,44.35
2018-07-25T09:50:11.188Z,44.26
2018-07-25T09:51:11.228Z,44.74
2018-07-25T09:52:11.282Z,44.94
2018-07-25T09:53:11.645Z,44.35
2018-07-25T09:54:11.333Z,44.26
2018-07-25T09:55:11.451Z,44.26
2018-07-25T09:56:11.472Z,44.26
2018-07-25T09:57:11.448Z,44.26
2018-07-25T09:58:11.542Z,44.16
2018-07-25T09:59:11.515Z,44.45
2018-07-25T10:00:11.868Z,44.16
2018-07-25T10:01:11.771Z,44.16
2018-07-25T10:02:11.631Z,44.45
2018-07-25T10:03:11.724Z,44.06
2018-07-25T10:04:11.796Z,44.35
2018-07-25T10:05:11.796Z,44.26
2018-07-25T10:06:12.123Z,44.65
2018-07-25T10:07:11.981Z,44.94
2018-07-25T10:08:11.899Z,44.45
2018-07-25T10:09:11.949Z,44.26
2018-07-25T10:10:11.963Z,43.96
2018-07-25T10:11:11.984Z,44.06
2018-07-25T10:12:12.348Z,44.06
2018-07-25T10:13:12.094Z,44.35
2018-07-25T10:14:12.074Z,44.06
2018-07-25T10:15:12.287Z,44.16
2018-07-25T10:16:12.237Z,44.06
2018-07-25T10:17:12.225Z,44.06
2018-07-25T10:18:12.659Z,44.16
2018-07-25T10:19:12.306Z,44.16
2018-07-25T10:20:12.363Z,44.06
2018-07-25T10:21:12.382Z,43.96
2018-07-25T10:22:12.361Z,44.18
2018-07-25T10:23:12.404Z,43.87
2018-07-25T10:24:12.481Z,43.87
2018-07-25T10:25:12.793Z,44.06
2018-07-25T10:26:12.575Z,44.28
2018-07-25T10:27:12.637Z,44.35
2018-07-25T10:28:12.582Z,43.96
2018-07-25T10:29:12.666Z,44.06
2018-07-25T10:30:12.653Z,44.06
2018-07-25T10:31:12.693Z,44.06
2018-07-25T10:32:13.023Z,44.16
2018-07-25T10:33:12.773Z,44.28
2018-07-25T10:34:12.925Z,44.09
2018-07-25T10:35:12.895Z,44.09
2018-07-25T10:36:12.873Z,44.28
2018-07-25T10:37:12.982Z,44.26
2018-07-25T10:38:12.954Z,44.09
2018-07-25T10:39:13.343Z,44.18
2018-07-25T10:40:13.062Z,44.18
2018-07-25T10:41:13.122Z,44.09
2018-07-25T10:42:13.087Z,44.09
2018-07-25T10:43:13.172Z,44.09
2018-07-25T10:44:13.216Z,44.09
2018-07-25T10:45:13.267Z,44.28
2018-07-25T10:46:13.584Z,44.28
2018-07-25T10:47:13.292Z,44.09
2018-07-25T10:48:13.361Z,44.67
2018-07-25T10:49:13.350Z,44.09
2018-07-25T10:50:13.382Z,43.99
2018-07-25T10:51:13.472Z,43.99
2018-07-25T10:52:13.509Z,44.09
2018-07-25T10:53:13.788Z,44.09
2018-07-25T10:54:13.525Z,44.09
2018-07-25T10:55:13.612Z,44.28
2018-07-25T10:56:13.683Z,44.38
2018-07-25T10:57:13.636Z,44.09
2018-07-25T10:58:13.672Z,43.99
2018-07-25T10:59:13.715Z,44.09
2018-07-25T11:00:14.100Z,44.09
2018-07-25T11:01:13.795Z,44.18
2018-07-25T11:02:13.950Z,44.09
2018-07-25T11:03:13.918Z,44.18
2018-07-25T11:04:13.958Z,44.18
2018-07-25T11:05:13.942Z,44.18
2018-07-25T11:06:13.973Z,44.09
2018-07-25T11:07:14.358Z,44.18
2018-07-25T11:08:14.039Z,44.09
2018-07-25T11:09:14.129Z,44.28
2018-07-25T11:10:14.173Z,44.18
2018-07-25T11:11:14.208Z,44.18
2018-07-25T11:12:14.200Z,44.09
2018-07-25T11:13:14.333Z,44.18
2018-07-25T11:14:14.561Z,44.28
2018-07-25T11:15:14.302Z,44.09
2018-07-25T11:16:14.463Z,43.89
2018-07-25T11:17:14.427Z,44.18
2018-07-25T11:18:14.461Z,43.99
2018-07-25T11:19:14.505Z,43.99
2018-07-25T11:20:14.484Z,44.18
2018-07-25T11:21:14.827Z,43.89
2018-07-25T11:22:14.613Z,44.18
2018-07-25T11:23:14.654Z,44.09
2018-07-25T11:24:14.680Z,44.09
2018-07-25T11:25:14.714Z,44.09
2018-07-25T11:26:14.766Z,44.18
2018-07-25T11:27:14.740Z,44.09
2018-07-25T11:28:15.138Z,43.99
2018-07-25T11:29:14.867Z,43.79
2018-07-25T11:30:14.853Z,43.59
2018-07-25T11:31:14.937Z,43.49
2018-07-25T11:32:15.017Z,43.69
2018-07-25T11:33:14.967Z,43.69
2018-07-25T11:34:15.066Z,43.59
2018-07-25T11:35:15.351Z,44.09
2018-07-25T11:36:15.126Z,43.49
2018-07-25T11:37:15.118Z,43.99
2018-07-25T11:38:15.253Z,44.01
2018-07-25T11:39:15.236Z,43.71
2018-07-25T11:40:15.232Z,43.71
2018-07-25T11:41:15.623Z,43.79
2018-07-25T11:42:15.348Z,43.71
2018-07-25T11:43:15.378Z,43.59
2018-07-25T11:44:15.424Z,43.62
2018-07-25T11:45:15.411Z,43.91
2018-07-25T11:46:15.506Z,43.91
2018-07-25T11:47:15.842Z,43.71
2018-07-25T11:48:15.540Z,43.62
2018-07-25T11:49:15.600Z,43.71
2018-07-25T11:50:15.660Z,44.01
2018-07-25T11:51:15.691Z,44.01
2018-07-25T11:52:15.727Z,43.71
2018-07-25T11:53:16.072Z,43.62
2018-07-25T11:54:15.801Z,43.62
2018-07-25T11:55:15.886Z,43.71
2018-07-25T11:56:16.164Z,43.71
2018-07-25T11:57:15.983Z,43.62
2018-07-25T11:58:15.949Z,44.01
2018-07-25T11:59:15.924Z,43.59
2018-07-25T12:00:16.347Z,44.10
2018-07-25T12:01:16.056Z,43.62
2018-07-25T12:02:16.085Z,43.62
2018-07-25T12:03:16.121Z,44.01
2018-07-25T12:04:16.109Z,43.62
2018-07-25T12:05:16.191Z,43.71
2018-07-25T12:06:16.241Z,43.62
2018-07-25T12:07:16.523Z,43.71
2018-07-25T12:08:16.301Z,43.62
2018-07-25T12:09:16.289Z,43.71
2018-07-25T12:10:16.345Z,43.81
2018-07-25T12:11:16.440Z,43.71
2018-07-25T12:12:16.460Z,44.01
2018-07-25T12:13:16.444Z,43.62
2018-07-25T12:14:16.830Z,43.71
2018-07-25T12:15:16.563Z,43.62
2018-07-25T12:16:16.546Z,44.20
2018-07-25T12:17:16.641Z,43.71
2018-07-25T12:18:16.679Z,43.62
2018-07-25T12:19:16.715Z,43.71
2018-07-25T12:20:16.753Z,43.91
2018-07-25T12:21:17.096Z,43.81
2018-07-25T12:22:16.831Z,43.62
2018-07-25T12:23:16.863Z,43.71
2018-07-25T12:24:16.855Z,43.81
2018-07-25T12:25:16.933Z,43.71
2018-07-25T12:27:17.014Z,43.52
2018-07-25T12:28:17.049Z,43.52
2018-07-25T12:29:17.089Z,43.52
2018-07-25T12:30:17.121Z,43.91
2018-07-25T12:31:17.159Z,43.81
2018-07-25T12:32:17.141Z,43.93
2018-07-25T12:33:17.230Z,44.01
2018-07-25T12:34:17.566Z,43.42
2018-07-25T12:35:17.307Z,43.44
2018-07-25T12:36:17.343Z,43.34
2018-07-25T12:37:17.337Z,43.42
2018-07-25T12:38:17.371Z,43.44
2018-07-25T12:39:17.404Z,43.34
2018-07-25T12:40:17.495Z,43.34
2018-07-25T12:41:17.836Z,43.54
2018-07-25T12:42:17.515Z,43.63
2018-07-25T12:44:17.590Z,43.63
2018-07-25T12:45:18.226Z,43.54
2018-07-25T12:46:17.730Z,43.54
2018-07-25T12:48:18.091Z,43.34
2018-07-25T12:49:17.814Z,43.15
2018-07-25T12:50:17.812Z,43.05
2018-07-25T12:51:17.899Z,43.24
2018-07-25T12:52:17.945Z,42.95
2018-07-25T12:53:18.039Z,42.95
2018-07-25T12:54:18.315Z,43.15
2018-07-25T12:55:18.049Z,43.05
2018-07-25T12:56:18.041Z,43.15
2018-07-25T12:57:18.118Z,43.15
2018-07-25T12:58:18.122Z,43.15
2018-07-25T12:59:18.217Z,42.95
2018-07-25T13:00:18.537Z,42.95
2018-07-25T13:01:18.283Z,42.95
2018-07-25T13:02:18.310Z,42.85
2018-07-25T13:03:18.350Z,42.95
2018-07-25T13:04:18.336Z,42.95
2018-07-25T13:05:18.449Z,42.95
2018-07-25T13:06:18.722Z,43.05
2018-07-25T13:07:18.506Z,42.95
2018-07-25T13:08:18.538Z,42.85
2018-07-25T13:09:18.601Z,42.66
2018-07-25T13:10:18.557Z,42.66
2018-07-25T13:11:18.655Z,42.66
2018-07-25T13:12:18.747Z,42.76
2018-07-25T13:13:19.219Z,42.76
2018-07-25T13:14:18.764Z,42.97
2018-07-25T13:15:18.802Z,42.48
2018-07-25T13:16:18.801Z,42.58
2018-07-25T13:17:18.821Z,42.68
2018-07-25T13:18:18.917Z,42.38
2018-07-25T13:19:18.904Z,42.29
2018-07-25T13:20:19.249Z,41.99
2018-07-25T13:21:18.978Z,41.99